Time;durP1;ratioP1;P1;durP2;ratioP2;P2;SDS_P1;SDS_P2;PMS_P1;PMS_P2;Temp;Humidity;BMP_temperature;BMP_pressure;BME280_temperature;BME280_humidity;BME280_pressure;Samples;Min_cycle;Max_cycle;Signal;HPM_P1;HPM_P2
2021/04/09 00:01:41;;;;;;;25.30;14.55;;;;;;;3.52;100.00;101508.63;3609747;39;20564;-64
2021/04/09 00:04:08;;;;;;;23.20;14.57;;;;;;;3.49;100.00;101498.97;3611151;39;20055;-65
2021/04/09 00:06:34;;;;;;;21.23;15.77;;;;;;;3.48;100.00;101496.38;3610345;39;20059;-64
2021/04/09 00:09:01;;;;;;;26.85;15.60;;;;;;;3.43;100.00;101491.28;3611558;39;20042;-64
2021/04/09 00:11:28;;;;;;;26.95;14.63;;;;;;;3.45;100.00;101494.72;3611577;39;20055;-65
2021/04/09 00:13:54;;;;;;;25.52;15.10;;;;;;;3.49;100.00;101488.31;3611280;39;20411;-64
2021/04/09 00:16:20;;;;;;;23.35;14.80;;;;;;;3.47;100.00;101484.84;3611099;39;20118;-65
2021/04/09 00:18:46;;;;;;;27.65;14.82;;;;;;;3.44;100.00;101479.69;3610599;39;20047;-63
2021/04/09 00:21:12;;;;;;;21.00;14.43;;;;;;;3.45;100.00;101488.56;3610676;39;20031;-65
2021/04/09 00:23:37;;;;;;;22.05;14.85;;;;;;;3.45;100.00;101480.56;3610821;39;20067;-65
2021/04/09 00:26:04;;;;;;;23.17;15.10;;;;;;;3.46;100.00;101479.59;3610419;39;20144;-64
2021/04/09 00:28:31;;;;;;;24.05;14.30;;;;;;;3.46;100.00;101477.84;3610045;39;20487;-64
2021/04/09 00:30:57;;;;;;;23.00;14.55;;;;;;;3.44;100.00;101470.84;3610480;39;20050;-66
2021/04/09 00:33:23;;;;;;;26.88;15.88;;;;;;;3.39;100.00;101476.41;3610211;39;20043;-64
2021/04/09 00:35:49;;;;;;;25.42;15.30;;;;;;;3.37;100.00;101472.94;3610890;39;20050;-65
2021/04/09 00:38:15;;;;;;;23.85;15.00;;;;;;;3.39;100.00;101471.09;3611916;39;20059;-66
2021/04/09 00:40:41;;;;;;;23.38;14.55;;;;;;;3.44;100.00;101473.50;3610903;39;20387;-64
2021/04/09 00:43:09;;;;;;;27.35;15.68;;;;;;;3.40;100.00;101467.50;3609792;39;20139;-63
2021/04/09 00:45:36;;;;;;;23.77;15.52;;;;;;;3.37;100.00;101466.75;3610702;39;20068;-63
2021/04/09 00:48:02;;;;;;;24.33;15.52;;;;;;;3.41;100.00;101458.56;3610302;39;20119;-63
2021/04/09 00:50:28;;;;;;;25.75;15.80;;;;;;;3.40;100.00;101467.50;3609917;39;20071;-64
2021/04/09 00:52:55;;;;;;;22.20;14.00;;;;;;;3.40;100.00;101462.19;3610003;39;20055;-65
2021/04/09 00:55:22;;;;;;;24.15;13.98;;;;;;;3.41;100.00;101452.38;3610561;39;21514;-64
2021/04/09 00:57:51;;;;;;;21.10;14.38;;;;;;;3.38;100.00;101445.41;3609694;39;20079;-63
2021/04/09 01:00:22;;;;;;;21.88;14.25;;;;;;;3.39;100.00;101449.78;3609847;39;20089;-65
2021/04/09 01:02:48;;;;;;;27.70;17.48;;;;;;;3.38;100.00;101442.75;3610874;39;20048;-64
2021/04/09 01:05:16;;;;;;;22.40;14.85;;;;;;;3.41;100.00;101441.72;3609611;39;20047;-65
2021/04/09 01:07:43;;;;;;;24.10;14.85;;;;;;;3.43;100.00;101446.06;3610784;39;20055;-63
2021/04/09 01:10:11;;;;;;;25.75;15.73;;;;;;;3.46;100.00;101439.69;3611626;39;20050;-65
2021/04/09 01:12:37;;;;;;;20.00;12.55;;;;;;;3.46;100.00;101429.94;3610612;39;20049;-64
2021/04/09 01:15:05;;;;;;;24.63;15.73;;;;;;;3.46;100.00;101432.59;3611846;39;20079;-64
2021/04/09 01:17:35;;;;;;;22.15;14.65;;;;;;;3.46;100.00;101432.59;3612283;39;20140;-63
2021/04/09 01:20:21;;;;;;;24.73;15.25;;;;;;;3.55;100.00;101430.38;3612333;39;20155;-64
2021/04/09 01:22:51;;;;;;;23.73;16.30;;;;;;;3.51;100.00;101421.72;3612328;39;20069;-65
2021/04/09 01:25:34;;;;;;;25.60;15.35;;;;;;;3.48;100.00;101417.41;3611636;39;20379;-63
2021/04/09 01:28:09;;;;;;;29.10;16.63;;;;;;;3.53;100.00;101413.66;3612797;39;20048;-64
2021/04/09 01:31:22;;;;;;;25.33;15.30;;;;;;;3.48;100.00;101411.22;3629741;22;20060;-64
2021/04/09 01:33:54;;;;;;;23.73;14.38;;;;;;;3.52;100.00;101412.81;3581178;40;20057;-64
2021/04/09 01:36:25;;;;;;;24.90;15.00;;;;;;;3.50;100.00;101406.66;3581421;40;20056;-64
2021/04/09 01:38:55;;;;;;;24.00;14.32;;;;;;;3.49;100.00;101404.97;3582039;40;20086;-64
2021/04/09 01:41:22;;;;;;;23.45;15.10;;;;;;;3.49;100.00;101402.31;3582539;40;20076;-66
2021/04/09 01:43:50;;;;;;;28.80;15.20;;;;;;;3.50;100.00;101399.56;3582517;40;20395;-65
2021/04/09 01:46:17;;;;;;;24.80;15.20;;;;;;;3.56;100.00;101394.88;3581763;40;20064;-64
2021/04/09 01:48:46;;;;;;;21.42;14.38;;;;;;;3.51;100.00;101398.59;3582083;40;20050;-65
2021/04/09 01:51:15;;;;;;;21.33;14.27;;;;;;;3.56;100.00;101408.16;3580792;40;20048;-64
2021/04/09 01:53:44;;;;;;;25.98;15.13;;;;;;;3.57;100.00;101393.94;3582197;40;20064;-64
2021/04/09 01:56:12;;;;;;;24.65;15.13;;;;;;;3.61;100.00;101382.19;3581522;40;20060;-66
2021/04/09 01:58:38;;;;;;;22.42;14.25;;;;;;;3.64;100.00;101380.22;3581190;40;20068;-64
2021/04/09 02:01:08;;;;;;;20.75;14.02;;;;;;;3.67;100.00;101379.22;3582323;40;20048;-66
2021/04/09 02:03:34;;;;;;;24.00;14.23;;;;;;;3.71;100.00;101379.91;3581118;40;20439;-64
2021/04/09 02:06:02;;;;;;;24.83;14.85;;;;;;;3.73;100.00;101373.56;3582282;40;20399;-64
2021/04/09 02:08:30;;;;;;;20.98;14.50;;;;;;;3.82;100.00;101378.41;3581462;40;20058;-64
2021/04/09 02:10:58;;;;;;;26.20;13.38;;;;;;;3.83;100.00;101374.81;3581734;40;20068;-64
2021/04/09 02:13:25;;;;;;;26.00;16.05;;;;;;;3.87;100.00;101380.81;3581426;40;20131;-66
2021/04/09 02:15:54;;;;;;;23.90;14.15;;;;;;;3.84;100.00;101373.88;3581945;40;20318;-65
2021/04/09 02:18:20;;;;;;;22.27;13.30;;;;;;;3.81;100.00;101358.06;3581889;40;20053;-64
2021/04/09 02:20:47;;;;;;;24.65;14.55;;;;;;;3.84;100.00;101346.38;3581231;40;20335;-64
2021/04/09 02:23:13;;;;;;;26.75;14.45;;;;;;;3.90;100.00;101361.16;3580987;40;20044;-64
2021/04/09 02:25:40;;;;;;;25.95;13.98;;;;;;;3.93;100.00;101358.34;3581394;40;20314;-64
2021/04/09 02:28:06;;;;;;;26.60;14.40;;;;;;;3.91;100.00;101350.44;3581776;40;20076;-64
2021/04/09 02:30:32;;;;;;;24.95;13.98;;;;;;;3.93;100.00;101353.03;3582111;40;20057;-65
2021/04/09 02:32:58;;;;;;;24.15;14.45;;;;;;;3.95;100.00;101353.81;3581252;40;20312;-66
2021/04/09 02:35:24;;;;;;;23.77;15.40;;;;;;;3.97;100.00;101350.09;3571932;40;20068;-64
2021/04/09 02:37:52;;;;;;;25.60;14.13;;;;;;;3.99;100.00;101342.91;3571234;40;20054;-66
2021/04/09 02:40:21;;;;;;;22.88;14.20;;;;;;;4.07;100.00;101339.84;3570936;40;20053;-65
2021/04/09 02:42:51;;;;;;;22.75;14.32;;;;;;;4.06;100.00;101343.44;3571438;40;20052;-64
2021/04/09 02:45:19;;;;;;;25.08;14.70;;;;;;;4.14;100.00;101335.06;3571606;40;20077;-64
2021/04/09 02:47:46;;;;;;;22.50;14.55;;;;;;;4.15;100.00;101332.31;3571913;40;20061;-65
2021/04/09 02:50:14;;;;;;;21.65;15.00;;;;;;;4.17;100.00;101341.06;3571930;40;20060;-65
2021/04/09 02:52:46;;;;;;;26.38;13.57;;;;;;;4.26;100.00;101336.19;3570586;40;20071;-65
2021/04/09 02:55:14;;;;;;;17.65;12.63;;;;;;;4.26;100.00;101329.03;3571363;40;20468;-64
2021/04/09 02:57:41;;;;;;;25.88;14.65;;;;;;;4.20;100.00;101330.22;3571354;40;20061;-64
2021/04/09 03:00:10;;;;;;;20.30;15.10;;;;;;;4.27;100.00;101332.56;3571537;40;20076;-64
2021/04/09 03:02:39;;;;;;;21.42;14.98;;;;;;;4.26;100.00;101321.03;3571292;40;20507;-65
2021/04/09 03:05:07;;;;;;;22.35;13.40;;;;;;;4.28;100.00;101327.16;3571005;40;20063;-65
2021/04/09 03:07:34;;;;;;;19.70;13.07;;;;;;;4.24;100.00;101314.06;3572164;40;20053;-64
2021/04/09 03:10:00;;;;;;;20.65;13.43;;;;;;;4.24;100.00;101324.72;3570599;40;20122;-65
2021/04/09 03:12:28;;;;;;;22.70;13.60;;;;;;;4.27;100.00;101324.56;3571921;40;20088;-65
2021/04/09 03:14:56;;;;;;;20.38;13.77;;;;;;;4.28;100.00;101320.97;3571439;40;20061;-64
2021/04/09 03:17:27;;;;;;;23.25;14.57;;;;;;;4.31;100.00;101310.97;3570973;40;20077;-65
2021/04/09 03:19:53;;;;;;;24.88;13.82;;;;;;;4.30;100.00;101308.41;3571564;40;20034;-65
2021/04/09 03:24:45;;;;;;;22.13;13.75;;;;;;;4.33;100.00;101314.44;3622143;22;20043;-65
2021/04/09 03:27:14;;;;;;;19.20;12.63;;;;;;;4.31;100.00;101310.13;3605030;39;20039;-64
2021/04/09 03:29:40;;;;;;;21.83;13.80;;;;;;;4.33;100.00;101308.25;3615716;39;20051;-65
2021/04/09 03:32:07;;;;;;;22.13;13.27;;;;;;;4.34;100.00;101302.84;3615405;39;20095;-65
2021/04/09 03:34:34;;;;;;;22.13;13.18;;;;;;;4.33;100.00;101297.59;3614857;39;20292;-65
2021/04/09 03:37:00;;;;;;;21.88;13.88;;;;;;;4.33;100.00;101293.13;3614315;39;20031;-64
2021/04/09 03:39:26;;;;;;;21.77;15.23;;;;;;;4.38;100.00;101295.53;3615324;39;20109;-65
2021/04/09 03:41:52;;;;;;;21.75;13.57;;;;;;;4.42;100.00;101290.88;3615590;39;20417;-65
2021/04/09 03:44:18;;;;;;;22.30;13.82;;;;;;;4.43;100.00;101292.59;3615182;39;20184;-67
2021/04/09 03:46:44;;;;;;;22.65;12.30;;;;;;;4.48;100.00;101288.75;3616016;39;20050;-65
2021/04/09 03:49:10;;;;;;;22.95;12.85;;;;;;;4.51;100.00;101296.56;3612583;39;20051;-65
2021/04/09 03:51:36;;;;;;;18.83;12.38;;;;;;;4.50;100.00;101286.84;3613779;39;20051;-65
2021/04/09 03:54:03;;;;;;;19.65;12.57;;;;;;;4.55;100.00;101292.78;3615424;39;20038;-65
2021/04/09 03:56:29;;;;;;;21.95;12.70;;;;;;;4.55;100.00;101291.94;3614924;39;20320;-66
2021/04/09 03:58:55;;;;;;;18.02;12.43;;;;;;;4.52;100.00;101284.97;3613669;39;20298;-65
2021/04/09 04:03:17;;;;;;;18.83;11.73;;;;;;;4.53;100.00;101288.47;3584320;39;718889;-64
2021/04/09 04:05:43;;;;;;;18.77;12.57;;;;;;;4.59;100.00;101285.44;3602933;39;20029;-64
2021/04/09 04:08:09;;;;;;;19.83;12.20;;;;;;;4.55;100.00;101292.78;3608849;39;20382;-65
2021/04/09 04:10:35;;;;;;;19.73;13.20;;;;;;;4.56;100.00;101289.19;3607104;39;20058;-64
2021/04/09 04:13:01;;;;;;;19.58;13.82;;;;;;;4.51;100.00;101285.91;3608620;39;20341;-66
2021/04/09 04:15:27;;;;;;;24.67;13.10;;;;;;;4.52;100.00;101287.63;3607672;39;20054;-64
2021/04/09 04:17:53;;;;;;;22.80;13.07;;;;;;;4.50;100.00;101278.84;3608890;39;20039;-66
2021/04/09 04:20:20;;;;;;;18.83;12.63;;;;;;;4.49;100.00;101278.91;3606632;39;20155;-66
2021/04/09 04:22:46;;;;;;;18.48;13.20;;;;;;;4.50;100.00;101278.84;3607874;39;20054;-65
2021/04/09 04:25:12;;;;;;;21.98;14.50;;;;;;;4.49;100.00;101276.25;3604999;39;20343;-65
2021/04/09 04:27:38;;;;;;;20.65;13.98;;;;;;;4.48;100.00;101275.41;3608119;39;20047;-65
2021/04/09 04:30:05;;;;;;;21.42;13.82;;;;;;;4.48;100.00;101266.56;3606623;39;20051;-65
2021/04/09 04:32:31;;;;;;;23.40;14.10;;;;;;;4.45;100.00;101269.41;3608563;39;20143;-65
2021/04/09 04:34:57;;;;;;;20.77;12.93;;;;;;;4.44;100.00;101265.00;3608174;39;20108;-66
2021/04/09 04:37:24;;;;;;;22.13;13.80;;;;;;;4.45;100.00;101264.94;3643325;22;20300;-65
2021/04/09 04:39:50;;;;;;;21.23;14.40;;;;;;;4.42;100.00;101264.22;3586544;40;20129;-65
2021/04/09 04:42:16;;;;;;;23.73;14.48;;;;;;;4.37;100.00;101267.16;3587358;40;20033;-65
2021/04/09 04:44:42;;;;;;;22.75;14.82;;;;;;;4.34;100.00;101262.88;3586735;40;20048;-65
2021/04/09 04:47:08;;;;;;;25.88;15.40;;;;;;;4.34;100.00;101257.53;3587373;40;20417;-65
2021/04/09 04:49:34;;;;;;;24.52;15.00;;;;;;;4.35;100.00;101258.41;3585923;40;20054;-64
2021/04/09 04:52:00;;;;;;;22.73;15.77;;;;;;;4.30;100.00;101258.66;3587641;40;20143;-65
2021/04/09 04:54:27;;;;;;;24.05;14.65;;;;;;;4.30;100.00;101265.78;3586388;40;20326;-64
2021/04/09 04:56:53;;;;;;;21.55;14.73;;;;;;;4.33;100.00;101255.81;3587547;40;20055;-65
2021/04/09 04:59:19;;;;;;;26.55;14.30;;;;;;;4.30;100.00;101260.44;3585857;40;20056;-66
2021/04/09 05:01:45;;;;;;;23.05;14.85;;;;;;;4.29;100.00;101256.06;3587152;40;20051;-65
2021/04/09 05:04:11;;;;;;;25.02;14.48;;;;;;;4.29;100.00;101256.06;3586392;40;20044;-66
2021/04/09 05:06:37;;;;;;;24.02;15.98;;;;;;;4.27;100.00;101252.63;3588594;40;20076;-66
2021/04/09 05:09:03;;;;;;;22.00;13.30;;;;;;;4.32;100.00;101255.91;3584714;40;20595;-66
2021/04/09 05:11:29;;;;;;;25.35;14.50;;;;;;;4.27;100.00;101272.16;3587092;40;20049;-64
2021/04/09 05:13:55;;;;;;;23.40;14.52;;;;;;;4.25;100.00;101257.19;3580711;40;20415;-64
2021/04/09 05:16:21;;;;;;;25.23;14.55;;;;;;;4.28;100.00;101259.69;3580690;40;20092;-65
2021/04/09 05:18:47;;;;;;;24.33;14.95;;;;;;;4.27;100.00;101261.50;3579904;40;20044;-64
2021/04/09 05:21:13;;;;;;;26.52;15.52;;;;;;;4.29;100.00;101258.75;3580356;40;20300;-65
2021/04/09 05:23:39;;;;;;;21.77;15.00;;;;;;;4.29;100.00;101256.94;3579873;40;20055;-67
2021/04/09 05:26:05;;;;;;;25.52;14.65;;;;;;;4.30;100.00;101255.09;3580157;40;20339;-66
2021/04/09 05:28:32;;;;;;;19.63;13.73;;;;;;;4.31;100.00;101246.19;3579936;40;20302;-65
2021/04/09 05:30:58;;;;;;;22.52;14.13;;;;;;;4.34;100.00;101251.34;3581288;40;20539;-66
2021/04/09 05:33:24;;;;;;;24.42;14.80;;;;;;;4.35;100.00;101258.41;3580653;40;20076;-67
2021/04/09 05:35:51;;;;;;;20.30;13.63;;;;;;;4.37;100.00;101256.50;3582012;40;20045;-66
2021/04/09 05:38:17;;;;;;;24.67;15.63;;;;;;;4.38;100.00;101258.22;3579918;40;20033;-64
2021/04/09 05:40:42;;;;;;;22.92;14.98;;;;;;;4.40;100.00;101250.97;3580843;40;20049;-65
2021/04/09 05:43:09;;;;;;;20.83;14.00;;;;;;;4.40;100.00;101250.97;3580811;40;20056;-66
2021/04/09 05:45:35;;;;;;;22.38;13.95;;;;;;;4.48;100.00;101247.91;3581166;40;20052;-66
2021/04/09 05:48:04;;;;;;;21.65;14.80;;;;;;;4.47;100.00;101251.50;3580484;40;20049;-67
2021/04/09 05:50:31;;;;;;;22.80;14.65;;;;;;;4.50;100.00;101257.50;3578950;40;20295;-66
2021/04/09 05:52:57;;;;;;;23.75;14.02;;;;;;;4.54;100.00;101253.72;3578928;40;20093;-67
2021/04/09 05:55:23;;;;;;;21.23;14.98;;;;;;;4.55;100.00;101260.78;3580333;40;20036;-65
2021/04/09 05:57:49;;;;;;;21.63;13.85;;;;;;;4.61;100.00;101248.03;3579263;40;20060;-65
2021/04/09 06:00:16;;;;;;;25.92;15.43;;;;;;;4.53;100.00;101254.69;3578991;40;20060;-65
2021/04/09 06:02:43;;;;;;;24.33;15.23;;;;;;;4.60;100.00;101249.00;3579393;40;20419;-65
2021/04/09 06:05:10;;;;;;;24.55;14.60;;;;;;;4.61;100.00;101248.03;3580427;40;20058;-65
2021/04/09 06:07:36;;;;;;;22.50;13.35;;;;;;;4.69;100.00;101256.47;3579434;40;20057;-66
2021/04/09 06:10:03;;;;;;;22.80;14.57;;;;;;;4.69;100.00;101251.13;3578809;40;20052;-66
2021/04/09 06:12:29;;;;;;;22.95;14.82;;;;;;;4.68;100.00;101260.06;3580251;40;20044;-68
2021/04/09 06:14:55;;;;;;;20.15;14.15;;;;;;;4.74;100.00;101259.72;3581616;40;20049;-65
2021/04/09 06:17:21;;;;;;;22.45;15.55;;;;;;;4.79;100.00;101252.31;3580231;40;20069;-67
2021/04/09 06:19:48;;;;;;;28.90;16.25;;;;;;;4.87;100.00;101255.41;3580552;40;20036;-66
2021/04/09 06:22:14;;;;;;;22.85;15.02;;;;;;;4.97;100.00;101249.53;3580460;40;20137;-67
2021/04/09 06:24:40;;;;;;;24.63;15.45;;;;;;;4.97;100.00;101246.88;3580799;40;20431;-67
2021/04/09 06:27:07;;;;;;;21.67;13.82;;;;;;;4.99;100.00;101255.63;3581034;40;20106;-66
2021/04/09 06:29:33;;;;;;;22.63;13.73;;;;;;;5.06;100.00;101257.88;3580864;40;20108;-66
2021/04/09 06:31:59;;;;;;;22.48;14.57;;;;;;;5.02;100.00;101252.78;3580796;40;20045;-67
2021/04/09 06:34:25;;;;;;;20.52;14.90;;;;;;;5.07;100.00;101262.22;3580935;40;20384;-66
2021/04/09 06:36:51;;;;;;;21.63;14.07;;;;;;;5.04;100.00;101256.22;3580894;40;20053;-66
2021/04/09 06:45:39;;;;;;;24.65;14.77;;;;;;;4.99;100.00;101258.28;3589865;23;20051;-66
2021/04/09 06:48:06;;;;;;;21.35;13.80;;;;;;;5.08;100.00;101258.63;3574337;40;20094;-66
2021/04/09 06:50:32;;;;;;;22.75;13.88;;;;;;;5.16;100.00;101257.31;3571839;40;20063;-66
2021/04/09 06:53:00;;;;;;;22.05;14.25;;;;;;;5.37;100.00;101260.50;3572973;40;20422;-67
2021/04/09 06:55:26;;;;;;;26.52;14.30;;;;;;;5.42;100.00;101248.59;3574233;40;20043;-66
2021/04/09 06:57:53;;;;;;;21.58;13.52;;;;;;;5.57;100.00;101237.94;3573684;40;20063;-65
2021/04/09 07:00:23;;;;;;;24.02;15.75;;;;;;;5.72;100.00;101247.66;3572173;40;20057;-66
2021/04/09 07:02:49;;;;;;;22.17;13.77;;;;;;;5.75;100.00;101246.59;3573068;40;20043;-66
2021/04/09 07:05:16;;;;;;;20.73;13.45;;;;;;;5.81;100.00;101248.88;3575025;40;20064;-66
2021/04/09 07:07:42;;;;;;;24.17;13.93;;;;;;;5.83;100.00;101243.44;3574042;40;20055;-66
2021/04/09 07:10:10;;;;;;;21.80;14.40;;;;;;;5.99;100.00;101244.22;3573371;40;20319;-65
2021/04/09 07:12:36;;;;;;;20.75;13.68;;;;;;;5.90;100.00;101245.66;3575158;40;20045;-65
2021/04/09 07:15:05;;;;;;;19.00;12.95;;;;;;;6.06;100.00;101239.38;3575751;40;20065;-67
2021/04/09 07:17:36;;;;;;;24.60;14.13;;;;;;;6.11;100.00;101250.59;3624916;23;20069;-66
2021/04/09 07:20:12;;;;;;;19.42;13.35;;;;;;;6.27;100.00;101258.50;3575189;40;20052;-66
2021/04/09 07:25:16;;;;;;;18.08;12.75;;;;;;;6.56;100.00;101247.75;3622301;22;20062;-66
2021/04/09 07:27:45;;;;;;;19.80;12.35;;;;;;;6.61;100.00;101248.31;3595395;39;20036;-68
2021/04/09 07:30:16;;;;;;;18.65;11.98;;;;;;;6.55;100.00;101244.25;3592489;39;20056;-68
2021/04/09 07:32:43;;;;;;;16.65;12.23;;;;;;;6.67;100.00;101239.91;3594346;39;20054;-65
2021/04/09 07:35:13;;;;;;;17.83;11.82;;;;;;;6.63;100.00;101239.22;3591688;39;20052;-66
2021/04/09 07:37:50;;;;;;;15.20;10.73;;;;;;;6.71;100.00;101243.22;3592193;39;20044;-63
2021/04/09 07:40:21;;;;;;;17.40;12.07;;;;;;;6.72;100.00;101242.25;3592180;39;20049;-66
2021/04/09 07:42:47;;;;;;;19.77;11.25;;;;;;;7.01;100.00;101238.47;3593298;39;20053;-66
2021/04/09 07:45:15;;;;;;;20.73;11.20;;;;;;;7.16;100.00;101230.38;3593576;40;20058;-65
2021/04/09 07:48:01;;;;;;;18.30;11.15;;;;;;;7.00;100.00;101235.91;3594008;39;20063;-65
2021/04/09 07:50:39;;;;;;;15.07;9.40;;;;;;;7.09;100.00;101245.97;3593416;39;20052;-65
2021/04/09 07:53:06;;;;;;;16.30;10.95;;;;;;;7.13;100.00;101246.66;3595058;39;20468;-66
2021/04/09 07:55:34;;;;;;;16.02;10.10;;;;;;;7.19;100.00;101248.91;3594478;39;20124;-66
2021/04/09 07:58:20;;;;;;;19.27;9.40;;;;;;;7.38;100.00;101245.81;3594695;40;20132;-65
2021/04/09 08:00:47;;;;;;;15.32;9.77;;;;;;;7.71;100.00;101245.31;3593480;39;20048;-67
2021/04/09 08:03:29;;;;;;;17.30;10.38;;;;;;;7.97;100.00;101247.09;3595363;39;20064;-66
2021/04/09 08:06:11;;;;;;;16.67;9.18;;;;;;;8.15;100.00;101244.91;3595266;39;20044;-66
2021/04/09 08:08:39;;;;;;;16.52;10.13;;;;;;;8.16;100.00;101241.28;3595398;39;20678;-65
2021/04/09 08:11:26;;;;;;;13.38;9.48;;;;;;;8.01;100.00;101246.75;3595158;39;20048;-65
2021/04/09 08:14:14;;;;;;;19.42;10.13;;;;;;;8.01;100.00;101240.53;3595054;39;20094;-67
2021/04/09 08:16:41;;;;;;;20.13;9.20;;;;;;;8.19;100.00;101247.25;3592649;39;20170;-66
2021/04/09 08:19:09;;;;;;;17.13;9.65;;;;;;;8.03;100.00;101249.31;3595002;39;20040;-65
2021/04/09 08:21:38;;;;;;;13.57;8.60;;;;;;;8.09;100.00;101245.34;3595401;39;20384;-65
2021/04/09 08:24:05;;;;;;;12.60;8.98;;;;;;;8.27;100.00;101246.69;3594799;39;20279;-66
2021/04/09 08:26:35;;;;;;;15.93;9.85;;;;;;;8.19;100.00;101241.88;3595763;39;20043;-65
2021/04/09 08:29:03;;;;;;;13.20;8.75;;;;;;;8.32;100.00;101247.22;3594930;39;20076;-66
2021/04/09 08:31:30;;;;;;;14.07;9.77;;;;;;;8.58;100.00;101250.72;3594963;39;20055;-66
2021/04/09 08:33:56;;;;;;;16.73;9.40;;;;;;;8.71;100.00;101245.25;3595792;39;20478;-66
2021/04/09 08:36:22;;;;;;;17.20;8.73;;;;;;;8.59;100.00;101248.88;3594429;39;20040;-66
2021/04/09 08:38:49;;;;;;;15.32;8.88;;;;;;;8.62;100.00;101256.69;3595930;39;20064;-65
2021/04/09 08:41:15;;;;;;;16.63;9.25;;;;;;;8.99;100.00;101261.97;3594369;39;20085;-67
2021/04/09 08:43:42;;;;;;;15.25;9.45;;;;;;;9.21;100.00;101265.72;3595425;39;20047;-66
2021/04/09 08:46:08;;;;;;;14.52;9.23;;;;;;;8.81;100.00;101261.53;3595011;39;20044;-65
2021/04/09 08:48:37;;;;;;;11.73;8.48;;;;;;;8.86;100.00;101266.56;3595478;39;20068;-66
2021/04/09 08:51:05;;;;;;;18.90;9.43;;;;;;;8.91;100.00;101270.63;3595585;39;20052;-66
2021/04/09 08:53:32;;;;;;;15.80;9.10;;;;;;;8.95;100.00;101268.56;3596659;39;20052;-65
2021/04/09 08:55:58;;;;;;;14.13;7.90;;;;;;;9.09;100.00;101279.13;3596910;39;20075;-67
2021/04/09 08:58:24;;;;;;;12.70;8.18;;;;;;;9.33;100.00;101272.84;3596638;39;20089;-66
2021/04/09 09:00:54;;;;;;;15.25;8.60;;;;;;;9.69;100.00;101268.28;3596074;39;20060;-66
2021/04/09 09:03:27;;;;;;;17.02;8.50;;;;;;;9.73;100.00;101269.75;3595826;39;20048;-67
2021/04/09 09:06:01;;;;;;;13.43;8.20;;;;;;;9.77;100.00;101270.38;3596163;39;20044;-66
2021/04/09 09:08:57;;;;;;;14.95;9.18;;;;;;;9.67;100.00;101269.38;3595569;39;20440;-65
2021/04/09 09:11:53;;;;;;;13.93;8.82;;;;;;;9.56;100.00;101270.22;3595412;39;20064;-66
2021/04/09 09:14:43;;;;;;;13.65;8.85;;;;;;;9.88;100.00;101269.50;3595423;39;20044;-68
2021/04/09 09:17:38;;;;;;;14.30;8.40;;;;;;;9.93;100.00;101270.84;3595082;39;20436;-67
2021/04/09 09:20:25;;;;;;;13.90;8.55;;;;;;;9.78;100.00;101278.31;3595318;39;20050;-67
2021/04/09 09:22:54;;;;;;;16.85;8.55;;;;;;;10.08;100.00;101266.09;3592463;39;20048;-67
2021/04/09 09:25:40;;;;;;;13.35;7.93;;;;;;;10.10;100.00;101264.16;3595518;39;20103;-66
2021/04/09 09:28:10;;;;;;;15.68;9.35;;;;;;;10.11;100.00;101265.00;3595552;39;20044;-67
2021/04/09 09:30:38;;;;;;;11.98;8.07;;;;;;;9.94;100.00;101271.72;3595525;39;20044;-66
2021/04/09 09:33:25;;;;;;;9.95;7.60;;;;;;;10.29;100.00;101273.41;3595208;39;20295;-67
2021/04/09 09:36:06;;;;;;;14.48;7.88;;;;;;;10.16;100.00;101269.03;3595822;39;20060;-66
2021/04/09 09:38:50;;;;;;;10.65;8.07;;;;;;;9.99;100.00;101282.97;3595032;39;20051;-67
2021/04/09 09:41:38;;;;;;;11.57;7.65;;;;;;;10.01;100.00;101272.94;3595700;39;20054;-67
2021/04/09 09:44:31;;;;;;;13.60;9.00;;;;;;;9.84;100.00;101273.44;3594918;39;20066;-66
2021/04/09 09:47:00;;;;;;;11.02;7.93;;;;;;;9.85;100.00;101276.00;3595722;39;20048;-66
2021/04/09 09:49:29;;;;;;;14.30;7.88;;;;;;;9.76;100.00;101272.22;3594848;39;20525;-67
2021/04/09 09:51:55;;;;;;;11.40;7.40;;;;;;;9.88;100.00;101264.13;3595742;39;20060;-66
2021/04/09 09:54:23;;;;;;;11.68;7.05;;;;;;;9.81;100.00;101267.31;3595609;39;20148;-66
2021/04/09 09:56:49;;;;;;;11.55;6.68;;;;;;;9.85;100.00;101264.38;3595321;39;20056;-66
2021/04/09 09:59:17;;;;;;;16.25;7.18;;;;;;;10.29;100.00;101265.34;3594928;39;20299;-65
2021/04/09 10:01:51;;;;;;;8.77;6.88;;;;;;;10.35;100.00;101264.91;3595101;39;20124;-67
2021/04/09 10:04:17;;;;;;;15.00;7.25;;;;;;;10.08;100.00;101262.56;3595184;39;20098;-69
2021/04/09 10:06:49;;;;;;;10.70;6.53;;;;;;;10.41;100.00;101263.50;3595375;39;20052;-67
2021/04/09 10:09:31;;;;;;;11.65;6.85;;;;;;;10.83;99.76;101256.41;3595393;39;20183;-67
2021/04/09 10:11:59;;;;;;;12.32;6.38;;;;;;;10.88;98.69;101261.44;3596063;39;20048;-67
2021/04/09 10:14:28;;;;;;;11.02;7.43;;;;;;;10.92;96.27;101260.19;3596025;39;20040;-68
2021/04/09 10:16:55;;;;;;;8.20;6.18;;;;;;;10.50;98.41;101254.72;3596781;39;20052;-69
2021/04/09 10:19:21;;;;;;;13.10;6.47;;;;;;;10.63;98.12;101263.47;3595250;39;20071;-67
2021/04/09 10:21:48;;;;;;;9.50;5.47;;;;;;;10.35;97.77;101262.19;3596096;39;20060;-67
2021/04/09 10:24:16;;;;;;;11.60;5.53;;;;;;;10.18;98.98;101267.06;3595704;39;20129;-67
2021/04/09 10:26:52;;;;;;;11.40;5.65;;;;;;;9.87;100.00;101267.81;3595530;39;20054;-68
2021/04/09 10:29:20;;;;;;;12.60;6.15;;;;;;;9.91;100.00;101264.75;3595304;39;20144;-68
2021/04/09 10:31:46;;;;;;;12.23;5.90;;;;;;;9.80;100.00;101272.81;3596375;39;20051;-67
2021/04/09 10:34:12;;;;;;;11.25;5.75;;;;;;;9.89;100.00;101264.00;3595834;39;20071;-67
2021/04/09 10:36:39;;;;;;;10.05;5.55;;;;;;;10.06;100.00;101262.66;3596218;39;20076;-69
2021/04/09 10:39:12;;;;;;;11.27;4.93;;;;;;;10.16;100.00;101258.25;3595780;39;20055;-68
2021/04/09 10:41:40;;;;;;;10.15;4.43;;;;;;;10.01;100.00;101259.47;3596332;39;20050;-67
2021/04/09 10:44:08;;;;;;;9.00;4.18;;;;;;;9.91;100.00;101267.44;3596058;39;20052;-67
2021/04/09 10:46:36;;;;;;;11.55;3.83;;;;;;;9.87;100.00;101267.81;3596555;40;21722;-68
2021/04/09 10:49:04;;;;;;;9.60;3.92;;;;;;;9.95;100.00;101262.66;3596042;39;20395;-68
2021/04/09 10:51:31;;;;;;;10.02;3.80;;;;;;;9.99;100.00;101253.38;3595371;39;20109;-69
2021/04/09 10:53:57;;;;;;;8.25;4.15;;;;;;;10.10;100.00;101257.88;3595491;40;20036;-67
2021/04/09 10:56:24;;;;;;;7.22;3.35;;;;;;;10.14;100.00;101254.84;3594672;39;20050;-69
2021/04/09 10:58:51;;;;;;;12.25;3.00;;;;;;;10.30;100.00;101259.81;3593776;39;20048;-67
2021/04/09 11:01:17;;;;;;;7.95;3.50;;;;;;;10.45;99.26;101259.59;3594462;40;20036;-68
2021/04/09 11:03:43;;;;;;;8.55;3.17;;;;;;;10.02;100.00;101255.81;3595062;40;20039;-67
2021/04/09 11:06:10;;;;;;;9.38;3.40;;;;;;;10.26;100.00;101260.19;3595093;40;20056;-68
2021/04/09 11:08:38;;;;;;;8.48;2.90;;;;;;;10.28;100.00;101260.94;3595363;40;20095;-67
2021/04/09 11:11:07;;;;;;;9.02;3.00;;;;;;;10.42;100.00;101257.16;3594542;39;20033;-73
2021/04/09 11:13:36;;;;;;;9.38;3.50;;;;;;;10.34;100.00;101257.78;3594997;39;20051;-67
2021/04/09 11:16:02;;;;;;;8.20;3.03;;;;;;;10.39;100.00;101255.56;3594932;39;20059;-68
2021/04/09 11:18:55;;;;;;;12.50;2.85;;;;;;;10.33;100.00;101253.34;3594021;39;20048;-67
2021/04/09 11:21:43;;;;;;;5.97;2.55;;;;;;;10.32;100.00;101246.25;3593415;39;20479;-69
2021/04/09 11:24:11;;;;;;;10.93;3.03;;;;;;;10.68;99.75;101246.94;3588925;39;20150;-67
2021/04/09 11:26:37;;;;;;;9.95;3.28;;;;;;;10.94;97.97;101249.28;3594797;39;20060;-68
2021/04/09 11:29:05;;;;;;;9.75;2.78;;;;;;;10.84;96.76;101247.38;3593480;39;20065;-72
2021/04/09 11:31:31;;;;;;;6.25;2.67;;;;;;;10.89;96.81;101241.59;3595109;40;20034;-69
2021/04/09 11:34:09;;;;;;;8.23;2.60;;;;;;;10.87;94.75;101235.50;3594464;40;20050;-65